createdAt,value
2019-04-25T00:04:28.886Z,14.90
2019-04-25T00:09:43.066Z,14.70
2019-04-25T00:14:51.302Z,14.60
2019-04-25T00:19:58.423Z,14.50
2019-04-25T00:25:24.326Z,14.30
2019-04-25T00:30:33.342Z,14.20
2019-04-25T00:35:43.233Z,14.10
2019-04-25T00:40:52.046Z,14.00
2019-04-25T00:46:01.455Z,13.90
2019-04-25T00:51:09.760Z,13.80
2019-04-25T00:56:17.219Z,13.80
2019-04-25T01:01:41.735Z,13.60
2019-04-25T01:06:51.661Z,13.60
2019-04-25T01:11:58.457Z,13.50
2019-04-25T01:17:07.126Z,13.40
2019-04-25T01:22:15.425Z,13.40
2019-04-25T01:27:23.355Z,13.30
2019-04-25T01:32:38.656Z,13.30
2019-04-25T01:38:03.656Z,13.20
2019-04-25T01:43:35.434Z,13.10
2019-04-25T01:48:43.389Z,13.00
2019-04-25T01:53:50.595Z,13.00
2019-04-25T01:58:59.458Z,12.90
2019-04-25T02:04:08.372Z,13.00
2019-04-25T02:09:17.805Z,13.00
2019-04-25T02:14:24.963Z,12.90
2019-04-25T02:19:32.000Z,12.80
2019-04-25T02:24:39.037Z,12.80
2019-04-25T02:29:46.123Z,12.70
2019-04-25T02:34:55.087Z,12.70
2019-04-25T02:40:05.803Z,12.70
2019-04-25T02:45:26.167Z,12.70
2019-04-25T02:50:40.780Z,12.60
2019-04-25T02:55:48.223Z,12.60
2019-04-25T03:01:07.967Z,12.50
2019-04-25T03:06:09.381Z,12.40
2019-04-25T03:11:15.539Z,12.40
2019-04-25T03:16:25.101Z,12.30
2019-04-25T03:21:35.261Z,12.40
2019-04-25T03:26:44.226Z,12.30
2019-04-25T03:31:51.165Z,12.30
2019-04-25T03:36:58.282Z,12.20
2019-04-25T03:42:06.241Z,12.10
2019-04-25T03:47:13.521Z,12.10
2019-04-25T03:52:20.737Z,12.10
2019-04-25T03:57:27.746Z,12.10
2019-04-25T04:02:34.925Z,12.10
2019-04-25T04:07:43.411Z,12.10
2019-04-25T04:12:50.646Z,12.20
2019-04-25T04:18:11.706Z,12.30
2019-04-25T04:23:27.463Z,12.40
2019-04-25T04:28:34.766Z,12.50
2019-04-25T04:33:43.133Z,12.60
2019-04-25T04:38:50.789Z,12.80
2019-04-25T04:43:57.924Z,12.80
2019-04-25T04:49:06.046Z,12.90
2019-04-25T04:54:14.144Z,13.00
2019-04-25T04:59:21.499Z,13.00
2019-04-25T05:04:36.380Z,13.00
2019-04-25T05:09:43.586Z,13.20
2019-04-25T05:14:50.642Z,13.40
2019-04-25T05:19:57.896Z,13.70
2019-04-25T05:25:06.582Z,13.90
2019-04-25T05:30:17.926Z,14.20
2019-04-25T05:35:26.146Z,14.40
2019-04-25T05:40:34.769Z,14.60
2019-04-25T05:45:43.953Z,14.80
2019-04-25T05:50:51.081Z,15.00
2019-04-25T05:55:58.228Z,15.10
2019-04-25T06:01:05.970Z,15.30
2019-04-25T06:06:13.409Z,15.40
2019-04-25T06:11:28.106Z,15.40
2019-04-25T06:16:36.402Z,15.50
2019-04-25T06:21:43.573Z,15.70
2019-04-25T06:27:25.879Z,15.90
2019-04-25T06:32:35.457Z,16.10
2019-04-25T06:37:43.761Z,16.30
2019-04-25T06:42:51.347Z,16.50
2019-04-25T06:48:16.770Z,16.80
2019-04-25T06:53:25.646Z,17.10
2019-04-25T06:58:34.237Z,17.40
2019-04-25T07:03:41.423Z,17.60
2019-04-25T07:08:48.604Z,17.90
2019-04-25T07:13:58.275Z,18.10
2019-04-25T07:19:06.104Z,18.10
2019-04-25T07:24:14.527Z,18.30
2019-04-25T07:29:34.615Z,18.50
2019-04-25T07:34:43.854Z,18.60
2019-04-25T07:39:51.081Z,18.70
2019-04-25T07:44:58.276Z,19.00
2019-04-25T07:50:06.305Z,19.30
2019-04-25T07:55:14.554Z,19.60
2019-04-25T08:00:21.994Z,19.70
2019-04-25T08:05:29.600Z,19.70
2019-04-25T08:11:03.867Z,19.80
2019-04-25T08:16:14.428Z,20.10
2019-04-25T08:21:23.897Z,20.20
2019-04-25T08:26:31.239Z,20.40
2019-04-25T08:31:39.426Z,20.70
2019-04-25T08:36:47.608Z,20.80
2019-04-25T08:41:54.686Z,21.00
2019-04-25T08:47:01.740Z,21.30
2019-04-25T08:52:08.828Z,21.60
2019-04-25T08:57:25.565Z,21.70
2019-04-25T09:02:52.348Z,21.70
2019-04-25T09:07:59.812Z,21.90
2019-04-25T09:13:06.860Z,21.90
2019-04-25T09:18:25.013Z,22.00
2019-04-25T09:23:34.651Z,22.30
2019-04-25T09:28:44.122Z,22.30
2019-04-25T09:33:54.171Z,22.60
2019-04-25T09:39:06.544Z,22.70
2019-04-25T09:44:15.481Z,22.70
2019-04-25T09:49:33.873Z,22.90
2019-04-25T09:54:58.753Z,23.00
2019-04-25T10:00:08.217Z,23.10
2019-04-25T10:05:15.358Z,23.40
2019-04-25T10:10:24.118Z,23.70
2019-04-25T10:16:07.278Z,24.00
2019-04-25T10:21:15.527Z,24.20
2019-04-25T10:26:23.346Z,24.70
2019-04-25T10:31:30.765Z,24.80
2019-04-25T10:36:39.902Z,24.80
2019-04-25T10:41:48.253Z,25.10
2019-04-25T10:46:55.639Z,25.20
2019-04-25T10:52:02.988Z,25.20
2019-04-25T10:57:11.012Z,25.20
2019-04-25T11:02:18.413Z,25.60
2019-04-25T11:07:25.841Z,25.90
2019-04-25T11:12:33.782Z,26.00
2019-04-25T11:17:45.173Z,26.10
2019-04-25T11:22:51.694Z,26.10
2019-04-25T11:27:59.326Z,26.00
2019-04-25T11:33:08.292Z,26.90
2019-04-25T11:38:19.740Z,27.20
2019-04-25T11:43:26.896Z,27.10
2019-04-25T11:48:34.100Z,26.80
2019-04-25T11:53:41.653Z,27.00
2019-04-25T11:58:48.975Z,27.10
2019-04-25T12:03:58.191Z,27.20
2019-04-25T12:09:06.908Z,28.10
2019-04-25T12:14:14.951Z,28.60
2019-04-25T12:19:33.107Z,29.00
2019-04-25T12:24:33.471Z,28.90
2019-04-25T12:29:40.819Z,29.50
2019-04-25T12:34:49.495Z,31.00
2019-04-25T12:39:58.268Z,31.40
2019-04-25T12:45:15.714Z,32.00
2019-04-25T12:50:24.712Z,32.10
2019-04-25T12:55:31.877Z,32.90
2019-04-25T13:00:47.958Z,34.30
2019-04-25T13:05:49.138Z,33.70
2019-04-25T13:11:07.487Z,34.50
2019-04-25T13:16:06.421Z,35.40
2019-04-25T13:21:14.736Z,35.70
2019-04-25T13:26:24.891Z,36.40
2019-04-25T13:31:49.680Z,36.00
2019-04-25T13:36:58.145Z,36.60
2019-04-25T13:42:06.754Z,38.60
2019-04-25T13:47:14.103Z,35.60
2019-04-25T13:52:21.394Z,33.80
2019-04-25T13:57:28.557Z,32.70
2019-04-25T14:02:35.814Z,34.60
2019-04-25T14:07:44.079Z,37.00
2019-04-25T14:12:51.254Z,37.00
2019-04-25T14:18:26.506Z,38.10
2019-04-25T14:23:35.701Z,39.50
2019-04-25T14:28:44.282Z,40.20
2019-04-25T14:33:51.791Z,40.80
2019-04-25T14:38:59.034Z,40.60
2019-04-25T14:44:06.593Z,38.90
2019-04-25T14:49:14.071Z,38.50
2019-04-25T14:54:28.440Z,38.40
2019-04-25T14:59:35.776Z,38.90
2019-04-25T15:04:49.429Z,38.80
2019-04-25T15:09:56.475Z,35.10
2019-04-25T15:15:04.021Z,31.20
2019-04-25T15:20:14.507Z,29.00
2019-04-25T15:25:22.591Z,27.90
2019-04-25T15:30:32.725Z,28.30
2019-04-25T15:35:48.487Z,31.40
2019-04-25T15:41:02.898Z,33.70
2019-04-25T15:46:22.518Z,34.50
2019-04-25T15:51:30.691Z,34.20
2019-04-25T15:56:37.878Z,33.30
2019-04-25T16:01:45.035Z,31.90
2019-04-25T16:06:52.198Z,30.80
2019-04-25T16:11:59.473Z,29.70
2019-04-25T16:17:06.634Z,29.00
2019-04-25T16:22:14.275Z,28.50
2019-04-25T16:27:21.478Z,28.60
2019-04-25T16:32:29.224Z,29.30
2019-04-25T16:37:37.098Z,30.40
2019-04-25T16:42:45.175Z,29.90
2019-04-25T16:47:52.252Z,29.40
2019-04-25T16:52:59.384Z,29.40
2019-04-25T16:58:07.325Z,29.90
2019-04-25T17:03:16.578Z,29.50
2019-04-25T17:08:23.758Z,28.90
2019-04-25T17:13:33.722Z,28.60
2019-04-25T17:18:54.061Z,28.00
2019-04-25T17:24:01.610Z,27.60
2019-04-25T17:29:12.265Z,26.80
2019-04-25T17:34:40.982Z,26.20
2019-04-25T17:39:51.282Z,25.10
2019-04-25T17:44:58.442Z,24.20
2019-04-25T17:50:06.211Z,23.60
2019-04-25T17:55:13.943Z,23.10
2019-04-25T18:00:35.797Z,22.80
2019-04-25T18:05:42.843Z,22.60
2019-04-25T18:10:51.325Z,22.30
2019-04-25T18:16:17.298Z,22.00
2019-04-25T18:21:25.562Z,21.80
2019-04-25T18:26:37.791Z,21.50
2019-04-25T18:31:46.333Z,21.30
2019-04-25T18:37:12.748Z,21.10
2019-04-25T18:42:37.906Z,20.90
2019-04-25T18:47:45.036Z,20.80
2019-04-25T18:53:14.463Z,20.60
2019-04-25T18:58:49.783Z,20.30
2019-04-25T19:04:08.465Z,20.10
2019-04-25T19:09:17.674Z,19.80
2019-04-25T19:14:27.187Z,19.60
2019-04-25T19:19:33.957Z,19.50
2019-04-25T19:24:45.054Z,19.30
2019-04-25T19:29:52.463Z,19.20
2019-04-25T19:34:58.889Z,18.90
2019-04-25T19:40:32.246Z,18.80
2019-04-25T19:45:41.021Z,18.60
2019-04-25T19:50:51.214Z,18.30
2019-04-25T19:55:58.482Z,18.10
2019-04-25T20:01:06.158Z,18.00
2019-04-25T20:06:29.314Z,17.70
2019-04-25T20:11:44.315Z,17.60
2019-04-25T20:16:52.365Z,17.50
2019-04-25T20:22:00.657Z,17.40
2019-04-25T20:27:08.218Z,17.40
2019-04-25T20:32:15.270Z,17.30
2019-04-25T20:37:22.452Z,17.20
2019-04-25T20:42:30.254Z,17.00
2019-04-25T20:47:38.448Z,16.80
2019-04-25T20:52:46.317Z,16.80
2019-04-25T20:57:55.423Z,16.60
2019-04-25T21:03:02.584Z,16.50
2019-04-25T21:08:10.770Z,16.50
2019-04-25T21:13:23.090Z,16.40
2019-04-25T21:18:37.466Z,16.30
2019-04-25T21:23:44.794Z,16.20
2019-04-25T21:28:52.262Z,16.10
2019-04-25T21:33:59.496Z,16.00
2019-04-25T21:39:10.046Z,15.80
2019-04-25T21:49:33.948Z,15.70
2019-04-25T21:54:41.468Z,15.30
2019-04-25T21:59:58.974Z,15.10
2019-04-25T22:04:58.745Z,15.00
2019-04-25T22:10:08.298Z,14.80
2019-04-25T22:15:15.923Z,14.70
2019-04-25T22:20:23.796Z,14.60
2019-04-25T22:25:30.958Z,14.50
2019-04-25T22:30:39.415Z,14.40
2019-04-25T22:35:56.321Z,14.30
2019-04-25T22:41:05.580Z,14.20
2019-04-25T22:46:25.223Z,14.10
2019-04-25T22:51:21.966Z,14.00
2019-04-25T22:56:29.588Z,13.90
2019-04-25T23:01:56.973Z,13.80
2019-04-25T23:07:07.983Z,13.70
2019-04-25T23:12:15.128Z,13.60
2019-04-25T23:17:23.664Z,13.50
2019-04-25T23:22:31.490Z,13.40
2019-04-25T23:27:56.682Z,13.20
2019-04-25T23:33:04.090Z,13.10
2019-04-25T23:38:14.674Z,13.10
2019-04-25T23:43:21.101Z,12.90
2019-04-25T23:48:28.148Z,12.80
2019-04-25T23:53:35.242Z,12.80
2019-04-25T23:58:42.293Z,12.80
